Time;durP1;ratioP1;P1;durP2;ratioP2;P2;SDS_P1;SDS_P2;PMS_P1;PMS_P2;Temp;Humidity;BMP_temperature;BMP_pressure;BME280_temperature;BME280_humidity;BME280_pressure;Samples;Min_cycle;Max_cycle;Signal;HPM_P1;HPM_P2
2022/04/20 00:01:18;;;;;;;6.83;4.50;;;8.20;99.90;;;;;;5077346;28;20040;-73
2022/04/20 00:03:44;;;;;;;6.93;4.40;;;8.20;99.90;;;;;;5067517;28;20048;-73
2022/04/20 00:06:10;;;;;;;5.80;4.43;;;8.20;99.90;;;;;;5061876;28;20048;-74
2022/04/20 00:08:35;;;;;;;7.37;4.47;;;8.10;99.90;;;;;;5081743;28;20042;-73
2022/04/20 00:11:01;;;;;;;5.50;4.33;;;8.10;99.90;;;;;;5056499;28;20618;-73
2022/04/20 00:13:27;;;;;;;5.50;4.10;;;8.00;99.90;;;;;;5068384;28;20044;-74
2022/04/20 00:15:54;;;;;;;6.63;4.23;;;8.00;99.90;;;;;;5058820;28;20487;-75
2022/04/20 00:18:20;;;;;;;5.90;4.27;;;7.90;99.90;;;;;;5079049;28;20071;-73
2022/04/20 00:20:46;;;;;;;10.03;4.50;;;7.90;99.90;;;;;;5077019;28;20040;-75
2022/04/20 00:23:11;;;;;;;12.27;4.40;;;7.90;99.90;;;;;;5074252;28;20043;-73
2022/04/20 00:25:37;;;;;;;10.07;4.27;;;7.80;99.90;;;;;;5081721;28;20118;-74
2022/04/20 00:28:03;;;;;;;7.73;4.40;;;7.80;99.90;;;;;;5054245;28;20131;-73
2022/04/20 00:30:29;;;;;;;7.70;4.47;;;7.80;99.90;;;;;;5069951;28;20043;-73
2022/04/20 00:32:56;;;;;;;8.07;4.43;;;7.70;99.90;;;;;;5059061;28;20028;-73
2022/04/20 00:35:22;;;;;;;6.23;4.40;;;7.70;99.90;;;;;;5068742;28;20052;-73
2022/04/20 00:37:49;;;;;;;8.37;4.40;;;7.70;99.90;;;;;;5062322;28;20045;-73
2022/04/20 00:40:15;;;;;;;10.30;4.90;;;7.60;99.90;;;;;;5071573;28;20437;-73
2022/04/20 00:42:42;;;;;;;7.20;4.90;;;7.60;99.90;;;;;;5049803;28;20045;-74
2022/04/20 00:45:09;;;;;;;5.43;4.30;;;7.60;99.90;;;;;;5087787;28;20043;-73
2022/04/20 00:47:37;;;;;;;8.77;5.60;;;7.60;99.90;;;;;;5077801;28;20060;-75
2022/04/20 00:50:06;;;;;;;6.90;4.53;;;7.50;99.90;;;;;;5058254;28;20044;-75
2022/04/20 00:52:33;;;;;;;5.77;4.20;;;7.50;99.90;;;;;;5060155;28;20040;-73
2022/04/20 00:54:59;;;;;;;7.10;5.07;;;7.50;99.90;;;;;;5062715;28;20039;-73
2022/04/20 00:57:24;;;;;;;7.83;4.83;;;7.40;99.90;;;;;;5069632;28;20097;-73
2022/04/20 00:59:52;;;;;;;7.57;4.77;;;7.40;99.90;;;;;;5068661;28;20032;-73
2022/04/20 01:02:20;;;;;;;8.07;5.00;;;7.40;99.90;;;;;;5066067;28;20500;-74
2022/04/20 01:04:48;;;;;;;7.20;4.87;;;7.30;99.90;;;;;;5061740;28;20131;-74
2022/04/20 01:07:37;;;;;;;6.80;4.57;;;7.30;99.90;;;;;;5049307;28;20079;-74
2022/04/20 01:10:36;;;;;;;7.77;5.10;;;7.30;99.90;;;;;;5067016;28;20555;-73
2022/04/20 01:13:20;;;;;;;8.23;5.47;;;7.20;99.90;;;;;;5081829;28;20072;-73
2022/04/20 01:16:00;;;;;;;11.57;4.83;;;7.20;99.90;;;;;;5067569;28;20427;-74
2022/04/20 01:18:42;;;;;;;8.93;4.97;;;7.20;99.90;;;;;;5061815;28;20036;-74
2022/04/20 01:21:45;;;;;;;8.80;5.57;;;7.20;99.90;;;;;;5062998;28;20116;-74
2022/04/20 01:24:49;;;;;;;7.47;5.20;;;7.20;99.90;;;;;;5064420;28;20093;-74
2022/04/20 01:27:28;;;;;;;6.77;4.77;;;7.10;99.90;;;;;;5069768;28;20137;-74
2022/04/20 01:29:54;;;;;;;7.30;5.10;;;7.10;99.90;;;;;;5081618;28;20044;-73
2022/04/20 01:32:36;;;;;;;7.87;4.70;;;7.10;99.90;;;;;;5049185;28;20056;-74
2022/04/20 01:35:08;;;;;;;8.13;5.43;;;7.10;99.90;;;;;;5056186;28;20123;-73
2022/04/20 01:37:35;;;;;;;7.30;5.10;;;7.10;99.90;;;;;;5073555;28;20046;-72
2022/04/20 01:40:01;;;;;;;6.70;5.17;;;7.00;99.90;;;;;;5062067;28;20036;-72
2022/04/20 01:42:27;;;;;;;9.83;5.27;;;7.00;99.90;;;;;;5075686;28;20039;-72
2022/04/20 01:44:58;;;;;;;7.47;5.57;;;7.00;99.90;;;;;;5032990;28;20059;-72
2022/04/20 01:47:44;;;;;;;8.20;5.07;;;7.00;99.90;;;;;;5056537;28;20499;-72
2022/04/20 01:50:30;;;;;;;9.43;5.43;;;7.00;99.90;;;;;;5073979;28;20055;-72
2022/04/20 01:53:08;;;;;;;8.73;5.03;;;7.00;99.90;;;;;;5056639;28;20488;-72
2022/04/20 01:55:55;;;;;;;6.70;5.57;;;6.90;99.90;;;;;;5057638;28;20043;-72
2022/04/20 01:58:39;;;;;;;7.70;5.40;;;6.90;99.90;;;;;;5082854;28;20176;-72
2022/04/20 02:04:19;;;;;;;7.40;5.00;;;6.80;99.90;;;;;;5048582;28;19923;-72
2022/04/20 02:06:45;;;;;;;9.53;5.17;;;6.80;99.90;;;;;;5085933;28;20048;-73
2022/04/20 02:09:19;;;;;;;9.27;5.60;;;6.80;99.90;;;;;;5057691;28;20095;-72
2022/04/20 02:12:08;;;;;;;7.40;5.50;;;6.80;99.90;;;;;;5079612;28;20086;-72
2022/04/20 02:14:53;;;;;;;7.57;5.10;;;6.70;99.90;;;;;;5061841;28;20051;-73
2022/04/20 02:17:38;;;;;;;8.70;5.53;;;6.70;99.90;;;;;;5081594;28;20082;-72
2022/04/20 02:20:08;;;;;;;10.07;6.07;;;6.70;99.90;;;;;;5048461;28;20028;-72
2022/04/20 02:22:34;;;;;;;7.87;5.70;;;6.70;99.90;;;;;;5055425;28;20105;-72
2022/04/20 02:25:01;;;;;;;8.57;5.80;;;6.70;99.90;;;;;;5070904;28;20052;-73
2022/04/20 02:27:27;;;;;;;15.77;6.17;;;6.60;99.90;;;;;;5045182;28;20051;-72
2022/04/20 02:29:53;;;;;;;8.63;6.10;;;6.60;99.90;;;;;;5046422;28;20377;-72
2022/04/20 02:32:19;;;;;;;8.77;5.50;;;6.60;99.90;;;;;;5060697;28;20074;-72
2022/04/20 02:34:46;;;;;;;7.17;5.17;;;6.60;99.90;;;;;;5052555;28;20052;-72
2022/04/20 02:37:12;;;;;;;9.33;6.07;;;6.60;99.90;;;;;;5056616;28;20047;-72
2022/04/20 02:39:39;;;;;;;10.53;5.53;;;6.60;99.90;;;;;;5063794;28;20053;-72
2022/04/20 02:42:08;;;;;;;10.93;5.90;;;6.50;99.90;;;;;;5066872;28;20048;-72
2022/04/20 02:44:34;;;;;;;8.43;5.90;;;6.50;99.90;;;;;;5088435;28;20128;-72
2022/04/20 02:47:01;;;;;;;9.20;6.03;;;6.50;99.90;;;;;;5045772;28;20529;-72
2022/04/20 02:49:26;;;;;;;13.07;6.50;;;6.50;99.90;;;;;;5057071;28;20468;-73
2022/04/20 02:51:52;;;;;;;8.20;5.47;;;6.40;99.90;;;;;;5053898;28;20047;-73
2022/04/20 02:54:18;;;;;;;11.17;6.03;;;6.40;99.90;;;;;;5045907;28;20046;-72
2022/04/20 02:56:44;;;;;;;8.83;5.70;;;6.40;99.90;;;;;;5045724;28;20076;-72
2022/04/20 02:59:11;;;;;;;8.00;5.97;;;6.40;99.90;;;;;;5062078;28;20385;-72
2022/04/20 03:01:39;;;;;;;8.83;5.83;;;6.30;99.90;;;;;;5068813;28;20035;-73
2022/04/20 03:04:09;;;;;;;8.77;5.70;;;6.30;99.90;;;;;;5060382;28;20040;-72
2022/04/20 03:06:35;;;;;;;8.07;5.57;;;6.20;99.90;;;;;;5055599;28;20040;-72
2022/04/20 03:09:07;;;;;;;8.40;5.37;;;6.20;99.90;;;;;;5042494;28;20044;-72
2022/04/20 03:11:36;;;;;;;8.63;5.73;;;6.20;99.90;;;;;;5066441;28;20032;-72
2022/04/20 03:14:02;;;;;;;8.47;5.83;;;6.20;99.90;;;;;;5056565;28;20043;-72
2022/04/20 03:16:29;;;;;;;8.60;5.63;;;6.10;99.90;;;;;;5061283;28;20047;-72
2022/04/20 03:18:56;;;;;;;9.83;5.87;;;6.10;99.90;;;;;;5062189;28;20082;-72
2022/04/20 03:21:25;;;;;;;8.80;5.70;;;6.10;99.90;;;;;;5065915;28;20032;-72
2022/04/20 03:23:54;;;;;;;8.80;6.10;;;6.00;99.90;;;;;;5059203;28;20414;-72
2022/04/20 03:26:30;;;;;;;9.23;5.77;;;6.00;99.90;;;;;;5065708;28;20040;-72
2022/04/20 03:29:05;;;;;;;10.57;6.23;;;5.90;99.90;;;;;;5042184;28;20539;-72
2022/04/20 03:31:34;;;;;;;9.93;6.40;;;5.90;99.90;;;;;;5100207;28;20048;-73
2022/04/20 03:34:00;;;;;;;8.07;5.87;;;5.90;99.90;;;;;;5083372;28;20043;-72
2022/04/20 03:36:25;;;;;;;9.83;5.70;;;5.80;99.90;;;;;;5054201;28;20040;-72
2022/04/20 03:38:51;;;;;;;9.20;6.00;;;5.80;99.90;;;;;;5056153;28;20036;-72
2022/04/20 03:41:18;;;;;;;9.33;6.53;;;5.80;99.90;;;;;;5063098;28;20035;-72
2022/04/20 03:43:44;;;;;;;8.93;5.70;;;5.80;99.90;;;;;;5091649;28;20044;-73
2022/04/20 03:46:11;;;;;;;10.17;6.03;;;5.80;99.90;;;;;;5054864;28;20040;-72
2022/04/20 03:48:38;;;;;;;9.87;6.23;;;5.80;99.90;;;;;;5064746;28;20075;-72
2022/04/20 03:51:04;;;;;;;7.43;5.70;;;5.70;99.90;;;;;;5055400;28;20122;-72
2022/04/20 03:53:31;;;;;;;9.77;6.20;;;5.80;99.90;;;;;;5060001;28;20130;-72
2022/04/20 03:55:58;;;;;;;10.83;6.20;;;5.70;99.90;;;;;;5050403;28;20036;-72
2022/04/20 03:58:24;;;;;;;8.43;5.80;;;5.80;99.90;;;;;;5079543;28;20051;-72
2022/04/20 04:00:51;;;;;;;11.13;6.90;;;5.70;99.90;;;;;;5052780;28;20403;-72
2022/04/20 04:03:17;;;;;;;10.23;6.33;;;5.80;99.90;;;;;;5058481;28;20474;-72
2022/04/20 04:05:45;;;;;;;10.53;6.10;;;5.70;99.90;;;;;;5053302;28;20118;-72
2022/04/20 04:08:17;;;;;;;10.70;5.40;;;5.70;99.90;;;;;;5084713;28;20043;-72
2022/04/20 04:10:42;;;;;;;9.67;5.90;;;5.70;99.90;;;;;;5051331;28;20050;-72
2022/04/20 04:13:08;;;;;;;10.07;5.70;;;5.60;99.90;;;;;;5056298;28;20144;-72
2022/04/20 04:15:35;;;;;;;11.43;6.40;;;5.60;99.90;;;;;;5051808;28;20044;-72
2022/04/20 04:18:04;;;;;;;10.50;5.67;;;5.60;99.90;;;;;;5084421;28;20043;-72
2022/04/20 04:20:37;;;;;;;7.70;5.60;;;5.60;99.90;;;;;;5058408;28;20040;-72
2022/04/20 04:23:06;;;;;;;9.60;5.77;;;5.50;99.90;;;;;;5053127;28;20051;-72
2022/04/20 04:25:55;;;;;;;9.90;5.80;;;5.60;99.90;;;;;;5059781;28;20059;-72
2022/04/20 04:28:32;;;;;;;9.47;6.17;;;5.60;99.90;;;;;;5053124;28;20697;-72
2022/04/20 04:30:58;;;;;;;10.60;5.70;;;5.60;99.90;;;;;;5052301;28;20036;-72
2022/04/20 04:33:24;;;;;;;10.23;6.70;;;5.50;99.90;;;;;;5047961;28;20048;-72
2022/04/20 04:35:50;;;;;;;7.97;5.40;;;5.50;99.90;;;;;;5081278;28;20050;-72
2022/04/20 04:38:18;;;;;;;8.63;5.73;;;5.50;99.90;;;;;;5057578;28;20040;-72
2022/04/20 04:40:44;;;;;;;8.13;5.73;;;5.50;99.90;;;;;;5058190;28;20044;-72
2022/04/20 04:43:09;;;;;;;11.30;5.60;;;5.50;99.90;;;;;;5053016;28;20139;-72
2022/04/20 04:48:37;;;;;;;10.43;5.57;;;5.50;99.90;;;;;;5062336;28;20036;-72
2022/04/20 04:51:04;;;;;;;8.10;5.60;;;5.50;99.90;;;;;;5067190;28;20040;-72
2022/04/20 04:53:36;;;;;;;7.10;5.30;;;5.50;99.90;;;;;;5068124;28;20062;-72
2022/04/20 04:56:02;;;;;;;8.87;5.00;;;5.60;99.90;;;;;;5056291;28;20138;-72
2022/04/20 04:58:28;;;;;;;11.00;5.33;;;5.60;99.90;;;;;;5040733;28;20052;-72
2022/04/20 05:00:54;;;;;;;7.17;5.00;;;5.60;99.90;;;;;;5049691;28;20032;-72
2022/04/20 05:03:23;;;;;;;9.00;5.90;;;5.70;99.90;;;;;;5068965;28;20055;-72
2022/04/20 05:05:51;;;;;;;8.03;5.40;;;5.70;99.90;;;;;;5045356;28;20502;-72
2022/04/20 05:08:31;;;;;;;7.63;5.20;;;5.80;99.90;;;;;;5057250;28;20055;-72
2022/04/20 05:10:58;;;;;;;9.67;5.33;;;5.80;99.90;;;;;;5084550;28;20040;-72
2022/04/20 05:13:26;;;;;;;9.83;5.27;;;5.90;99.90;;;;;;5061841;28;20105;-72
2022/04/20 05:15:53;;;;;;;9.17;5.27;;;5.90;99.90;;;;;;5053862;28;20040;-72
2022/04/20 05:18:18;;;;;;;7.47;5.20;;;5.90;99.90;;;;;;5053952;28;20453;-72
2022/04/20 05:20:44;;;;;;;9.30;5.10;;;6.00;99.90;;;;;;5054922;28;20499;-72
2022/04/20 05:23:11;;;;;;;8.83;5.00;;;6.00;99.90;;;;;;5063922;28;20071;-72
2022/04/20 05:25:37;;;;;;;12.33;6.07;;;6.10;99.90;;;;;;5047269;28;20072;-72
2022/04/20 05:28:04;;;;;;;11.00;6.20;;;6.20;99.90;;;;;;5064911;28;20498;-72
2022/04/20 05:30:30;;;;;;;9.70;5.27;;;6.40;99.90;;;;;;5064306;28;20043;-72
2022/04/20 05:32:57;;;;;;;10.57;4.87;;;6.60;99.90;;;;;;5070400;28;20050;-73
2022/04/20 05:35:25;;;;;;;8.63;5.27;;;6.70;99.90;;;;;;5046863;28;20060;-72
2022/04/20 05:43:36;;;;;;;7.22;4.63;;;7.30;99.90;;;;;;5068799;28;20388;-72
2022/04/20 05:46:03;;;;;;;7.57;4.70;;;7.50;99.90;;;;;;5075650;28;20058;-72
2022/04/20 05:48:35;;;;;;;8.77;5.18;;;7.50;99.90;;;;;;5066605;28;20054;-72
2022/04/20 05:51:03;;;;;;;6.83;4.83;;;7.60;99.90;;;;;;5055327;28;20040;-72
2022/04/20 05:53:30;;;;;;;7.97;4.87;;;7.60;99.90;;;;;;5073114;28;20040;-72
2022/04/20 05:55:58;;;;;;;8.67;5.00;;;7.50;99.90;;;;;;5063843;28;20042;-72
2022/04/20 05:58:24;;;;;;;7.17;4.67;;;7.50;99.90;;;;;;5049979;28;20044;-72
2022/04/20 06:00:53;;;;;;;6.03;4.27;;;7.50;99.90;;;;;;5050437;28;20074;-73
2022/04/20 06:03:37;;;;;;;7.60;4.37;;;7.50;99.90;;;;;;5093058;28;20074;-72
2022/04/20 06:06:14;;;;;;;8.40;4.33;;;7.50;99.90;;;;;;5058079;28;20433;-72
2022/04/20 06:08:47;;;;;;;9.10;4.60;;;7.60;99.90;;;;;;5054188;28;20044;-72
2022/04/20 06:11:45;;;;;;;8.30;4.53;;;7.70;99.90;;;;;;5066543;28;20101;-72
2022/04/20 06:14:16;;;;;;;8.23;5.07;;;8.00;99.90;;;;;;5078357;28;20535;-72
2022/04/20 06:16:51;;;;;;;7.97;4.70;;;8.80;99.90;;;;;;5055377;28;20097;-73
2022/04/20 06:19:26;;;;;;;6.97;4.33;;;9.90;99.90;;;;;;5042229;28;20123;-73
2022/04/20 06:22:15;;;;;;;7.87;4.70;;;10.90;99.90;;;;;;5048954;28;20189;-73
2022/04/20 06:24:57;;;;;;;6.67;4.00;;;11.80;99.90;;;;;;5039562;28;20047;-73
2022/04/20 06:27:33;;;;;;;7.67;4.20;;;12.40;99.90;;;;;;5048453;28;20052;-72
2022/04/20 06:30:17;;;;;;;7.38;4.38;;;12.90;99.90;;;;;;5067798;28;20118;-74
2022/04/20 06:32:58;;;;;;;6.53;3.80;;;13.30;98.30;;;;;;5066235;28;20044;-74
2022/04/20 06:35:48;;;;;;;8.33;4.37;;;13.70;97.70;;;;;;5059016;28;20056;-73
2022/04/20 06:38:27;;;;;;;6.87;4.10;;;14.30;96.30;;;;;;5048024;28;20044;-72
2022/04/20 06:41:19;;;;;;;5.60;4.00;;;14.80;94.20;;;;;;5059995;28;20043;-73
2022/04/20 06:44:04;;;;;;;13.43;3.60;;;15.30;92.70;;;;;;5043959;28;20044;-73
2022/04/20 06:46:45;;;;;;;13.70;4.77;;;15.90;92.10;;;;;;5046638;28;20040;-73
2022/04/20 06:49:31;;;;;;;7.33;3.60;;;16.40;90.50;;;;;;5046472;28;20626;-73
2022/04/20 07:00:35;;;;;;;8.00;4.17;;;16.60;81.30;;;;;;5065899;28;20036;-75
2022/04/20 07:03:06;;;;;;;7.17;3.60;;;16.90;83.10;;;;;;5069242;28;20036;-74
2022/04/20 07:05:39;;;;;;;6.13;3.83;;;16.90;79.20;;;;;;5064067;28;20044;-74
2022/04/20 07:08:26;;;;;;;6.23;4.07;;;16.40;79.10;;;;;;5059135;28;20074;-73
2022/04/20 07:11:03;;;;;;;8.30;4.50;;;16.20;79.40;;;;;;5050747;28;20048;-76
2022/04/20 07:13:29;;;;;;;7.17;4.43;;;15.70;80.30;;;;;;5055983;28;20054;-74
2022/04/20 07:15:55;;;;;;;8.13;3.73;;;15.60;82.80;;;;;;5038965;28;20450;-74
2022/04/20 07:18:21;;;;;;;6.13;4.50;;;15.50;82.10;;;;;;5055859;28;20059;-74
2022/04/20 07:20:48;;;;;;;9.33;4.50;;;15.20;84.00;;;;;;5078419;28;20071;-74
2022/04/20 07:23:33;;;;;;;8.13;4.07;;;14.70;86.40;;;;;;5059755;28;20541;-74
2022/04/20 07:26:05;;;;;;;7.53;4.03;;;14.50;86.10;;;;;;5068760;28;20066;-74
2022/04/20 07:28:44;;;;;;;7.33;3.93;;;14.40;88.20;;;;;;5038993;28;20404;-74
2022/04/20 07:31:28;;;;;;;9.75;4.55;;;14.30;87.90;;;;;;5067953;28;20052;-75
2022/04/20 07:34:17;;;;;;;5.63;4.03;;;13.90;87.90;;;;;;5061471;28;20043;-74
2022/04/20 07:36:53;;;;;;;7.50;4.17;;;13.60;89.70;;;;;;5062794;28;20052;-75
2022/04/20 07:39:35;;;;;;;6.70;3.10;;;13.40;90.20;;;;;;5065607;28;20086;-74
2022/04/20 07:42:01;;;;;;;9.83;3.57;;;13.20;90.30;;;;;;5086567;28;20048;-75
2022/04/20 07:44:35;;;;;;;;;;;12.90;88.20;;;;;;5056427;28;20064;-76
2022/04/20 07:47:15;;;;;;;5.37;3.83;;;12.70;90.00;;;;;;5071673;28;19948;-76
2022/04/20 07:50:21;;;;;;;6.40;3.57;;;12.60;89.30;;;;;;5014487;28;20180;-77
2022/04/20 07:53:26;;;;;;;4.30;3.20;;;12.50;90.30;;;;;;5016934;28;20088;-76
2022/04/20 07:56:14;;;;;;;5.50;3.30;;;12.50;90.60;;;;;;5054306;28;20104;-75
2022/04/20 07:58:46;;;;;;;6.20;3.07;;;12.60;90.50;;;;;;5078278;28;20036;-75
2022/04/20 08:01:20;;;;;;;7.97;2.63;;;12.70;88.50;;;;;;5100872;28;20043;-75
2022/04/20 08:03:46;;;;;;;4.97;2.80;;;12.80;86.40;;;;;;5100436;28;20048;-75
2022/04/20 08:06:13;;;;;;;4.03;2.93;;;12.70;86.10;;;;;;5079818;28;20055;-76
2022/04/20 08:08:41;;;;;;;6.17;2.90;;;12.70;87.50;;;;;;5056460;28;20045;-77
2022/04/20 08:11:07;;;;;;;8.87;3.47;;;12.60;87.30;;;;;;5064978;28;20032;-76
2022/04/20 08:16:43;;;;;;;3.23;2.50;;;12.60;90.00;;;;;;5067617;28;20058;-75
2022/04/20 08:19:28;;;;;;;3.83;2.80;;;12.70;86.60;;;;;;5100068;28;20044;-74
2022/04/20 08:22:06;;;;;;;4.67;3.10;;;12.70;88.10;;;;;;5095158;28;20891;-74
2022/04/20 08:24:33;;;;;;;6.83;3.23;;;12.70;87.80;;;;;;5085869;28;20105;-78
2022/04/20 08:26:59;;;;;;;8.37;3.27;;;12.80;88.50;;;;;;5093453;28;20071;-75
2022/04/20 08:29:25;;;;;;;5.20;3.00;;;12.90;89.30;;;;;;5104041;28;20076;-78
2022/04/20 08:31:51;;;;;;;4.90;2.60;;;13.00;90.70;;;;;;5087683;28;20048;-75
2022/04/20 08:34:17;;;;;;;3.43;2.33;;;13.30;90.20;;;;;;5104473;28;20032;-76
2022/04/20 08:36:42;;;;;;;4.30;2.70;;;13.60;87.40;;;;;;5086018;28;20492;-76
2022/04/20 08:39:08;;;;;;;7.87;2.57;;;13.80;87.00;;;;;;5082170;28;20047;-77
2022/04/20 08:41:36;;;;;;;5.53;2.40;;;14.00;84.70;;;;;;5103738;28;20051;-76
2022/04/20 08:44:04;;;;;;;2.93;1.83;;;14.30;81.30;;;;;;5097182;28;20083;-75
2022/04/20 08:46:39;;;;;;;5.93;2.10;;;14.60;72.90;;;;;;5101037;28;20090;-76
2022/04/20 08:49:05;;;;;;;2.50;1.83;;;15.10;67.00;;;;;;5102648;28;20035;-77
2022/04/20 08:52:37;;;;;;;5.17;2.23;;;15.70;66.00;;;;;;5075553;28;20131;-76
2022/04/20 08:54:18;;;;;;;3.17;2.00;;;16.20;65.70;;;;;;5099591;28;20089;-76
2022/04/20 08:59:33;;;;;;;4.80;2.40;;;17.20;67.10;;;;;;5093706;28;20326;-77
2022/04/20 09:02:01;;;;;;;6.07;2.67;;;17.70;66.20;;;;;;5103217;28;20093;-76
2022/04/20 09:04:27;;;;;;;2.70;2.10;;;18.10;64.70;;;;;;5082845;28;20037;-77
2022/04/20 09:06:54;;;;;;;4.50;2.40;;;18.40;60.40;;;;;;5061151;28;20070;-76
2022/04/20 09:09:20;;;;;;;4.30;2.00;;;18.50;51.40;;;;;;5083850;28;20051;-78
2022/04/20 09:11:49;;;;;;;4.50;1.77;;;18.30;51.90;;;;;;5084555;28;20424;-76
2022/04/20 09:14:16;;;;;;;4.03;1.90;;;18.00;49.60;;;;;;5102199;28;20071;-76
2022/04/20 09:16:43;;;;;;;2.87;1.70;;;17.80;52.30;;;;;;5104237;28;20089;-77
2022/04/20 09:19:10;;;;;;;4.17;1.90;;;17.70;56.10;;;;;;5101248;28;20032;-76
2022/04/20 09:21:36;;;;;;;4.27;2.10;;;17.60;50.00;;;;;;5096143;28;20042;-77
2022/04/20 09:24:06;;;;;;;3.73;1.93;;;17.30;47.40;;;;;;5101413;28;20037;-82
2022/04/20 09:26:31;;;;;;;4.90;1.90;;;17.10;54.20;;;;;;5104248;28;20048;-77
2022/04/20 09:29:08;;;;;;;2.90;1.67;;;17.20;53.90;;;;;;5076237;28;20040;-76
2022/04/20 09:31:41;;;;;;;3.77;1.70;;;17.30;50.10;;;;;;5102614;28;20043;-77
2022/04/20 09:34:07;;;;;;;2.63;1.60;;;17.50;49.20;;;;;;5102684;28;20089;-76
2022/04/20 09:36:41;;;;;;;2.23;1.60;;;17.90;48.80;;;;;;5082809;28;20051;-76
2022/04/20 09:39:07;;;;;;;;;;;18.30;51.30;;;;;;5087486;28;20040;-75
2022/04/20 09:41:54;;;;;;;3.37;1.57;;;19.00;51.90;;;;;;5101473;28;19916;-77
2022/04/20 09:44:22;;;;;;;2.87;1.60;;;19.90;48.00;;;;;;5098388;28;20084;-77
2022/04/20 09:49:51;;;;;;;2.70;1.50;;;21.50;44.80;;;;;;5102982;28;20062;-75
2022/04/20 09:52:17;;;;;;;3.97;1.43;;;22.10;41.00;;;;;;5102498;28;20104;-76
2022/04/20 09:54:53;;;;;;;3.93;1.40;;;22.20;39.60;;;;;;5103220;28;20076;-77
2022/04/20 09:57:20;;;;;;;4.70;1.77;;;22.40;39.10;;;;;;5104548;28;20047;-76
2022/04/20 09:59:56;;;;;;;2.80;1.70;;;22.90;40.40;;;;;;5102054;28;20058;-76
2022/04/20 10:02:22;;;;;;;4.70;1.33;;;23.30;35.00;;;;;;5085261;28;20076;-80
2022/04/20 10:04:48;;;;;;;3.40;1.70;;;23.00;35.30;;;;;;5099702;28;20042;-75
2022/04/20 10:07:15;;;;;;;5.03;1.73;;;23.20;38.10;;;;;;5105297;28;20047;-76
2022/04/20 10:09:43;;;;;;;6.73;1.50;;;23.70;39.60;;;;;;5101780;28;20093;-78
2022/04/20 10:12:11;;;;;;;4.63;1.63;;;24.10;37.40;;;;;;5100689;28;20040;-80
2022/04/20 10:17:26;;;;;;;2.53;1.50;;;24.30;36.10;;;;;;5098316;28;20094;-75
2022/04/20 10:19:53;;;;;;;2.87;1.70;;;24.10;35.70;;;;;;5094070;28;20051;-76
2022/04/20 10:22:21;;;;;;;2.13;1.40;;;24.00;35.60;;;;;;5102405;28;20068;-76
2022/04/20 10:24:50;;;;;;;3.17;1.60;;;24.00;37.30;;;;;;5112829;28;20069;-76
2022/04/20 10:27:21;;;;;;;5.07;1.57;;;24.20;36.90;;;;;;5093224;28;20051;-77
2022/04/20 10:29:51;;;;;;;3.37;1.70;;;24.10;33.90;;;;;;5084010;28;20629;-75
2022/04/20 10:32:23;;;;;;;4.30;1.67;;;23.90;36.60;;;;;;5114083;28;20035;-78
2022/04/20 10:34:52;;;;;;;4.00;1.80;;;23.90;37.00;;;;;;5092749;28;21657;-77
2022/04/20 10:38:02;;;;;;;5.77;1.90;;;23.80;36.60;;;;;;5101371;28;20510;-76
2022/04/20 10:40:29;;;;;;;3.40;1.80;;;23.70;36.90;;;;;;5062644;28;20048;-77
2022/04/20 10:43:21;;;;;;;4.47;1.87;;;23.50;36.90;;;;;;5083260;28;20036;-75
2022/04/20 10:46:05;;;;;;;2.30;1.70;;;23.40;35.90;;;;;;5082089;28;20039;-74
2022/04/20 10:48:52;;;;;;;3.83;1.63;;;23.20;34.50;;;;;;5102286;28;20113;-75
2022/04/20 10:51:19;;;;;;;3.90;1.63;;;23.00;37.00;;;;;;5096972;28;20040;-78
2022/04/20 10:53:48;;;;;;;4.40;1.63;;;23.00;36.70;;;;;;5104277;28;20066;-75
2022/04/20 10:56:17;;;;;;;3.23;1.50;;;23.00;37.30;;;;;;5064240;28;20036;-73
2022/04/20 10:59:09;;;;;;;1.93;1.40;;;22.60;34.00;;;;;;5084668;28;20056;-77
2022/04/20 11:02:11;;;;;;;3.03;1.57;;;21.90;33.40;;;;;;5079515;28;20040;-77
2022/04/20 11:04:42;;;;;;;2.20;1.40;;;21.60;34.90;;;;;;5078984;28;20051;-76
2022/04/20 11:07:20;;;;;;;3.90;1.47;;;21.70;34.00;;;;;;5099564;28;20044;-78
2022/04/20 11:09:57;;;;;;;3.13;1.47;;;21.80;37.80;;;;;;5101789;28;20040;-76
2022/04/20 11:18:42;;;;;;;3.00;1.60;;;22.20;35.80;;;;;;5053903;28;20052;-76
2022/04/20 11:21:31;;;;;;;3.60;1.50;;;22.20;38.00;;;;;;5077489;28;20111;-76
2022/04/20 11:24:03;;;;;;;6.03;1.80;;;22.60;39.60;;;;;;5100495;28;20115;-76
2022/04/20 11:26:31;;;;;;;3.90;1.80;;;22.80;39.00;;;;;;5062640;28;20547;-77
2022/04/20 11:29:01;;;;;;;3.33;1.53;;;23.00;38.10;;;;;;5098705;28;20532;-77
2022/04/20 11:31:33;;;;;;;3.07;1.57;;;23.00;37.40;;;;;;5095487;28;20069;-78
2022/04/20 11:33:59;;;;;;;4.97;1.60;;;22.80;37.00;;;;;;5094603;28;20035;-75
2022/04/20 11:36:25;;;;;;;3.03;1.63;;;22.70;38.00;;;;;;5077559;28;20135;-78
2022/04/20 11:38:54;;;;;;;2.70;1.90;;;22.80;38.30;;;;;;5078398;28;20056;-76
2022/04/20 11:41:20;;;;;;;2.40;1.60;;;22.90;38.70;;;;;;5095282;28;20043;-77
2022/04/20 11:43:49;;;;;;;2.53;1.47;;;23.00;37.90;;;;;;5091892;28;20043;-77
2022/04/20 11:46:17;;;;;;;3.93;1.37;;;22.80;37.70;;;;;;5064676;28;20044;-77
2022/04/20 11:48:51;;;;;;;3.97;1.20;;;22.70;34.40;;;;;;5064123;28;20086;-79
2022/04/20 11:51:21;;;;;;;2.07;1.47;;;22.50;34.80;;;;;;5094242;28;20048;-76
2022/04/20 11:53:48;;;;;;;3.40;1.37;;;22.70;35.80;;;;;;5083586;28;20044;-76
2022/04/20 11:56:35;;;;;;;2.30;1.40;;;22.50;34.70;;;;;;5082921;28;20091;-75
2022/04/20 11:59:01;;;;;;;2.20;1.43;;;22.70;38.20;;;;;;5086520;28;20048;-77
2022/04/20 12:01:31;;;;;;;6.33;1.60;;;22.90;36.90;;;;;;5095319;28;20416;-75
2022/04/20 12:03:59;;;;;;;2.77;1.30;;;23.00;37.90;;;;;;5080572;28;20040;-76
2022/04/20 12:06:27;;;;;;;2.23;1.33;;;23.10;37.90;;;;;;5103681;28;20048;-74
2022/04/20 12:08:54;;;;;;;4.97;1.80;;;23.20;38.10;;;;;;5083341;28;20044;-76
2022/04/20 12:11:20;;;;;;;1.73;1.30;;;23.40;37.30;;;;;;5105561;28;20040;-76
2022/04/20 12:13:52;;;;;;;1.90;1.40;;;23.50;37.60;;;;;;5100097;28;20093;-77
2022/04/20 12:16:17;;;;;;;3.40;1.60;;;23.40;36.10;;;;;;5082059;28;20047;-75
2022/04/20 12:18:46;;;;;;;2.17;1.40;;;23.20;35.00;;;;;;5066157;28;20044;-75
2022/04/20 12:21:34;;;;;;;3.63;1.57;;;23.00;34.70;;;;;;5080343;28;20050;-75
2022/04/20 12:24:00;;;;;;;3.20;1.33;;;22.90;34.20;;;;;;5079946;28;20064;-77
2022/04/20 12:26:27;;;;;;;3.83;1.30;;;22.50;33.80;;;;;;5085842;28;20048;-78
2022/04/20 12:28:58;;;;;;;3.73;1.20;;;22.20;32.80;;;;;;5103042;28;20032;-76
2022/04/20 12:31:24;;;;;;;3.80;1.20;;;22.10;34.70;;;;;;5100082;28;20127;-75
2022/04/20 12:34:00;;;;;;;1.67;1.17;;;22.00;35.50;;;;;;5054935;28;20040;-75
2022/04/20 12:36:27;;;;;;;3.00;1.20;;;22.00;34.80;;;;;;5112758;28;20154;-76
2022/04/20 12:38:58;;;;;;;2.03;1.20;;;22.10;36.80;;;;;;5076221;28;20088;-76
2022/04/20 12:41:37;;;;;;;5.00;1.40;;;22.20;34.50;;;;;;5096967;28;20051;-77
2022/04/20 12:44:18;;;;;;;1.83;1.23;;;22.10;36.10;;;;;;5119410;28;20039;-79
2022/04/20 12:46:43;;;;;;;1.87;1.30;;;21.80;36.70;;;;;;5087192;28;20059;-76
2022/04/20 12:49:21;;;;;;;3.20;1.50;;;21.90;37.90;;;;;;5093395;28;20032;-80
2022/04/20 12:51:48;;;;;;;2.00;1.30;;;22.00;37.50;;;;;;5106400;28;20039;-79
2022/04/20 12:54:22;;;;;;;1.50;1.40;;;22.00;37.80;;;;;;5111466;28;20034;-75
2022/04/20 13:02:16;;;;;;;3.43;1.50;;;21.90;35.20;;;;;;5084464;28;20058;-76
2022/04/20 13:04:47;;;;;;;2.77;1.53;;;21.60;37.50;;;;;;5061456;28;20044;-75
2022/04/20 13:07:13;;;;;;;3.43;1.63;;;21.60;39.00;;;;;;5079164;28;20044;-76
2022/04/20 13:09:39;;;;;;;3.87;1.70;;;21.40;38.70;;;;;;5099271;28;20058;-74
2022/04/20 13:12:05;;;;;;;4.87;1.50;;;21.40;39.40;;;;;;5084332;28;20104;-76
2022/04/20 13:14:31;;;;;;;3.20;1.87;;;21.50;38.40;;;;;;5101893;28;20511;-75
2022/04/20 13:16:58;;;;;;;5.17;1.77;;;21.60;38.20;;;;;;5094637;28;20064;-74
2022/04/20 13:19:24;;;;;;;4.03;1.60;;;21.40;37.50;;;;;;5111769;28;20074;-77
2022/04/20 13:21:52;;;;;;;2.73;1.50;;;21.20;38.60;;;;;;5087372;28;20028;-75
2022/04/20 13:27:54;;;;;;;3.00;1.87;;;21.20;38.70;;;;;;5095821;28;20035;-79
2022/04/20 13:29:48;;;;;;;1.93;1.60;;;21.30;40.00;;;;;;5115185;28;20069;-78
2022/04/20 13:32:17;;;;;;;4.03;2.03;;;21.10;39.40;;;;;;5109223;28;20040;-74
2022/04/20 13:34:42;;;;;;;2.93;1.93;;;20.90;39.60;;;;;;5091717;28;20047;-77
2022/04/20 13:37:09;;;;;;;2.37;2.07;;;20.90;40.00;;;;;;5082300;28;20415;-75
2022/04/20 13:39:35;;;;;;;3.97;2.00;;;20.80;40.50;;;;;;5080919;28;20044;-75
2022/04/20 13:42:01;;;;;;;4.93;2.10;;;20.90;39.30;;;;;;5070596;28;20428;-75
2022/04/20 13:44:26;;;;;;;3.20;2.40;;;20.80;39.40;;;;;;5078625;28;20047;-74
2022/04/20 13:46:52;;;;;;;6.80;2.20;;;20.80;38.90;;;;;;5083678;28;20052;-74
2022/04/20 13:49:18;;;;;;;5.47;2.10;;;20.60;38.70;;;;;;5041909;28;20059;-75
2022/04/20 13:51:44;;;;;;;4.93;2.40;;;20.50;41.70;;;;;;5085771;28;20138;-75
2022/04/20 13:54:12;;;;;;;4.70;2.07;;;20.60;42.90;;;;;;5078041;28;20097;-75
2022/04/20 13:56:38;;;;;;;3.30;2.30;;;20.60;41.90;;;;;;5042003;28;20040;-73
2022/04/20 13:59:03;;;;;;;5.23;2.30;;;20.60;40.40;;;;;;5079729;28;20092;-75